createdAt,value
2022-08-07T00:00:40.046Z,99343.00
2022-08-07T00:03:09.246Z,99330.00
2022-08-07T00:05:37.505Z,99330.00
2022-08-07T00:08:07.869Z,99337.00
2022-08-07T00:10:36.344Z,99341.00
2022-08-07T00:13:25.680Z,99333.00
2022-08-07T00:15:56.305Z,99333.00
2022-08-07T00:18:27.108Z,99335.00
2022-08-07T00:20:57.592Z,99339.00
2022-08-07T00:23:30.424Z,99342.00
2022-08-07T00:26:02.881Z,99337.00
2022-08-07T00:28:45.792Z,99338.00
2022-08-07T00:31:37.482Z,99336.00
2022-08-07T00:34:09.099Z,99334.00
2022-08-07T00:36:38.556Z,99330.00
2022-08-07T00:39:16.586Z,99326.00
2022-08-07T00:41:53.891Z,99330.00
2022-08-07T00:44:30.840Z,99328.00
2022-08-07T00:47:02.872Z,99328.00
2022-08-07T00:50:18.970Z,99324.00
2022-08-07T00:52:20.075Z,99331.00
2022-08-07T00:54:53.638Z,99316.00
2022-08-07T00:57:23.085Z,99326.00
2022-08-07T00:59:53.583Z,99336.00
2022-08-07T01:02:29.115Z,99328.00
2022-08-07T01:04:58.906Z,99328.00
2022-08-07T01:07:28.371Z,99320.00
2022-08-07T01:10:06.783Z,99324.00
2022-08-07T01:12:54.186Z,99322.00
2022-08-07T01:15:23.095Z,99319.00
2022-08-07T01:18:06.030Z,99326.00
2022-08-07T01:20:42.973Z,99326.00
2022-08-07T01:23:13.161Z,99323.00
2022-08-07T01:25:55.672Z,99323.00
2022-08-07T01:28:24.797Z,99313.00
2022-08-07T01:30:53.668Z,99324.00
2022-08-07T01:33:22.488Z,99314.00
2022-08-07T01:35:53.266Z,99316.00
2022-08-07T01:38:24.841Z,99315.00
2022-08-07T01:40:54.795Z,99323.00
2022-08-07T01:43:25.999Z,99320.00
2022-08-07T01:45:54.736Z,99331.00
2022-08-07T01:48:29.694Z,99322.00
2022-08-07T01:51:08.161Z,99320.00
2022-08-07T01:54:09.151Z,99323.00
2022-08-07T01:56:49.337Z,99332.00
2022-08-07T01:59:30.720Z,99322.00
2022-08-07T02:02:04.484Z,99324.00
2022-08-07T02:04:39.742Z,99329.00
2022-08-07T02:07:25.196Z,99326.00
2022-08-07T02:10:06.275Z,99326.00
2022-08-07T02:12:36.217Z,99325.00
2022-08-07T02:15:06.685Z,99326.00
2022-08-07T02:17:35.387Z,99320.00
2022-08-07T02:20:10.020Z,99325.00
2022-08-07T02:22:45.547Z,99322.00
2022-08-07T02:25:17.488Z,99322.00
2022-08-07T02:27:51.291Z,99322.00
2022-08-07T02:30:21.174Z,99312.00
2022-08-07T02:33:00.729Z,99315.00
2022-08-07T02:36:29.578Z,99305.00
2022-08-07T02:38:31.748Z,99306.00
2022-08-07T02:41:03.734Z,99293.00
2022-08-07T02:43:32.510Z,99297.00
2022-08-07T02:46:02.364Z,99306.00
2022-08-07T02:48:31.002Z,99297.00
2022-08-07T02:50:59.739Z,99292.00
2022-08-07T02:53:30.070Z,99287.00
2022-08-07T02:56:03.430Z,99278.00
2022-08-07T02:58:34.789Z,99282.00
2022-08-07T03:01:03.413Z,99283.00
2022-08-07T03:03:42.247Z,99278.00
2022-08-07T03:06:26.072Z,99279.00
2022-08-07T03:09:01.872Z,99273.00
2022-08-07T03:11:32.751Z,99278.00
2022-08-07T03:14:02.605Z,99274.00
2022-08-07T03:16:31.185Z,99265.00
2022-08-07T03:18:59.433Z,99269.00
2022-08-07T03:21:33.048Z,99279.00
2022-08-07T03:24:19.789Z,99280.00
2022-08-07T03:26:58.923Z,99275.00
2022-08-07T03:29:29.597Z,99269.00
2022-08-07T03:31:57.852Z,99269.00
2022-08-07T03:34:27.557Z,99276.00
2022-08-07T03:36:57.360Z,99274.00
2022-08-07T03:39:59.266Z,99274.00
2022-08-07T03:42:14.520Z,99268.00
2022-08-07T03:44:47.232Z,99268.00
2022-08-07T03:47:22.709Z,99270.00
2022-08-07T03:49:52.411Z,99276.00
2022-08-07T03:52:22.657Z,99265.00
2022-08-07T03:54:58.156Z,99273.00
2022-08-07T03:58:35.389Z,99277.00
2022-08-07T04:00:30.434Z,99280.00
2022-08-07T04:03:04.395Z,99274.00
2022-08-07T04:05:40.331Z,99288.00
2022-08-07T04:08:11.638Z,99271.00
2022-08-07T04:10:40.170Z,99276.00
2022-08-07T04:13:15.372Z,99286.00
2022-08-07T04:15:45.581Z,99285.00
2022-08-07T04:18:57.257Z,99289.00
2022-08-07T04:21:03.359Z,99284.00
2022-08-07T04:23:43.501Z,99296.00
2022-08-07T04:26:23.752Z,99295.00
2022-08-07T04:28:56.628Z,99298.00
2022-08-07T04:31:38.731Z,99296.00
2022-08-07T04:34:17.187Z,99286.00
2022-08-07T04:36:52.548Z,99292.00
2022-08-07T04:39:25.422Z,99293.00
2022-08-07T04:41:54.296Z,99292.00
2022-08-07T04:44:22.462Z,99295.00
2022-08-07T04:47:04.494Z,99304.00
2022-08-07T04:49:57.529Z,99296.00
2022-08-07T04:52:30.242Z,99291.00
2022-08-07T04:55:00.928Z,99307.00
2022-08-07T04:58:10.760Z,99312.00
2022-08-07T05:00:31.492Z,99306.00
2022-08-07T05:03:03.716Z,99320.00
2022-08-07T05:05:53.113Z,99322.00
2022-08-07T05:08:58.910Z,99309.00
2022-08-07T05:11:19.583Z,99313.00
2022-08-07T05:14:56.259Z,99316.00
2022-08-07T05:16:44.094Z,99318.00
2022-08-07T05:19:17.122Z,99312.00
2022-08-07T05:22:00.063Z,99318.00
2022-08-07T05:24:30.594Z,99316.00
2022-08-07T05:27:16.884Z,99322.00
2022-08-07T05:29:58.124Z,99318.00
2022-08-07T05:32:27.102Z,99322.00
2022-08-07T05:34:56.653Z,99322.00
2022-08-07T05:37:25.284Z,99318.00
2022-08-07T05:40:06.030Z,99321.00
2022-08-07T05:42:42.241Z,99319.00
2022-08-07T05:45:47.118Z,99312.00
2022-08-07T05:48:12.876Z,99318.00
2022-08-07T05:50:43.386Z,99319.00
2022-08-07T05:54:13.570Z,99322.00
2022-08-07T05:56:01.998Z,99327.00
2022-08-07T05:58:36.620Z,99329.00
2022-08-07T06:01:08.364Z,99327.00
2022-08-07T06:03:57.189Z,99327.00
2022-08-07T06:06:29.728Z,99323.00
2022-08-07T06:09:01.232Z,99327.00
2022-08-07T06:11:33.764Z,99322.00
2022-08-07T06:14:11.703Z,99321.00
2022-08-07T06:16:42.246Z,99324.00
2022-08-07T06:19:17.947Z,99324.00
2022-08-07T06:22:16.437Z,99314.00
2022-08-07T06:24:52.380Z,99318.00
2022-08-07T06:27:59.768Z,99319.00
2022-08-07T06:30:35.167Z,99315.00
2022-08-07T06:33:02.199Z,99317.00
2022-08-07T06:35:39.308Z,99326.00
2022-08-07T06:38:20.095Z,99320.00
2022-08-07T06:40:51.103Z,99323.00
2022-08-07T06:43:21.474Z,99321.00
2022-08-07T06:45:50.561Z,99318.00
2022-08-07T06:48:25.124Z,99318.00
2022-08-07T06:50:54.119Z,99319.00
2022-08-07T06:55:29.609Z,99323.00
2022-08-07T06:56:15.306Z,99313.00
2022-08-07T07:00:13.122Z,99319.00
2022-08-07T07:01:38.825Z,99316.00
2022-08-07T07:04:28.299Z,99316.00
2022-08-07T07:07:01.896Z,99313.00
2022-08-07T07:09:45.414Z,99317.00
2022-08-07T07:12:26.681Z,99320.00
2022-08-07T07:15:03.271Z,99315.00
2022-08-07T07:17:38.982Z,99317.00
2022-08-07T07:20:20.492Z,99318.00
2022-08-07T07:24:05.460Z,99319.00
2022-08-07T07:26:33.236Z,99310.00
2022-08-07T07:28:48.440Z,99310.00
2022-08-07T07:31:25.036Z,99313.00
2022-08-07T07:34:00.851Z,99298.00
2022-08-07T07:36:32.439Z,99309.00
2022-08-07T07:39:01.757Z,99305.00
2022-08-07T07:41:50.695Z,99300.00
2022-08-07T07:44:25.909Z,99304.00
2022-08-07T07:47:15.881Z,99291.00
2022-08-07T07:50:33.020Z,99288.00
2022-08-07T07:52:41.420Z,99290.00
2022-08-07T07:55:11.451Z,99296.00
2022-08-07T07:57:52.402Z,99297.00
2022-08-07T08:00:29.892Z,99306.00
2022-08-07T08:03:06.877Z,99300.00
2022-08-07T08:05:51.040Z,99293.00
2022-08-07T08:08:34.308Z,99294.00
2022-08-07T08:11:08.064Z,99282.00
2022-08-07T08:13:55.461Z,99287.00
2022-08-07T08:16:29.858Z,99279.00
2022-08-07T08:19:00.403Z,99286.00
2022-08-07T08:22:03.038Z,99274.00
2022-08-07T08:25:04.509Z,99279.00
2022-08-07T08:27:55.905Z,99276.00
2022-08-07T08:30:27.810Z,99271.00
2022-08-07T08:32:58.752Z,99267.00
2022-08-07T08:35:42.865Z,99273.00
2022-08-07T08:38:16.323Z,99280.00
2022-08-07T08:40:47.760Z,99274.00
2022-08-07T08:43:18.263Z,99268.00
2022-08-07T08:46:00.598Z,99259.00
2022-08-07T08:48:38.392Z,99271.00
2022-08-07T08:51:14.630Z,99265.00
2022-08-07T08:53:58.162Z,99260.00
2022-08-07T08:56:30.238Z,99251.00
2022-08-07T08:59:06.296Z,99266.00
2022-08-07T09:01:44.222Z,99270.00
2022-08-07T09:04:26.000Z,99264.00
2022-08-07T09:07:00.576Z,99251.00
2022-08-07T09:09:56.516Z,99243.00
2022-08-07T09:12:33.241Z,99238.00
2022-08-07T09:16:22.557Z,99242.00
2022-08-07T09:18:26.589Z,99241.00
2022-08-07T09:21:01.356Z,99238.00
2022-08-07T09:24:30.793Z,99234.00
2022-08-07T09:26:26.330Z,99236.00
2022-08-07T09:30:05.238Z,99236.00
2022-08-07T09:31:56.102Z,99232.00
2022-08-07T09:34:30.124Z,99235.00
2022-08-07T09:37:02.246Z,99221.00
2022-08-07T09:39:53.668Z,99220.00
2022-08-07T09:42:37.905Z,99210.00
2022-08-07T09:47:50.851Z,99215.00
2022-08-07T09:48:12.274Z,99230.00
2022-08-07T09:50:52.598Z,99222.00
2022-08-07T09:53:22.542Z,99220.00
2022-08-07T09:56:09.234Z,99216.00
2022-08-07T09:58:58.830Z,99202.00
2022-08-07T10:01:51.481Z,99203.00
2022-08-07T10:04:47.795Z,99207.00
2022-08-07T10:07:53.118Z,99195.00
2022-08-07T10:10:25.181Z,99199.00
2022-08-07T10:13:55.250Z,99195.00
2022-08-07T10:16:14.288Z,99185.00
2022-08-07T10:18:58.860Z,99182.00
2022-08-07T10:22:12.314Z,99173.00
2022-08-07T10:24:33.361Z,99177.00
2022-08-07T10:27:12.397Z,99167.00
2022-08-07T10:29:59.603Z,99163.00
2022-08-07T10:32:59.450Z,99161.00
2022-08-07T10:35:56.259Z,99143.00
2022-08-07T10:38:36.148Z,99164.00
2022-08-07T10:41:54.724Z,99157.00
2022-08-07T10:44:13.544Z,99156.00
2022-08-07T10:46:47.904Z,99149.00
2022-08-07T10:49:45.310Z,99138.00
2022-08-07T10:52:14.612Z,99144.00
2022-08-07T10:55:01.067Z,99143.00
2022-08-07T10:57:40.733Z,99142.00
2022-08-07T11:00:36.892Z,99133.00
2022-08-07T11:03:01.367Z,99141.00
2022-08-07T11:05:44.918Z,99134.00
2022-08-07T11:08:23.537Z,99128.00
2022-08-07T11:11:03.212Z,99124.00
2022-08-07T11:14:45.852Z,99123.00
2022-08-07T11:16:30.659Z,99124.00
2022-08-07T11:19:02.439Z,99113.00
2022-08-07T11:21:40.771Z,99111.00
2022-08-07T11:24:13.433Z,99117.00
2022-08-07T11:26:49.908Z,99099.00
2022-08-07T11:29:42.896Z,99103.00
2022-08-07T11:32:25.649Z,99103.00
2022-08-07T11:34:58.714Z,99102.00
2022-08-07T11:37:58.067Z,99099.00
2022-08-07T11:40:35.822Z,99089.00
2022-08-07T11:43:07.615Z,99088.00
2022-08-07T11:45:53.125Z,99076.00
2022-08-07T11:48:29.476Z,99073.00
2022-08-07T11:51:10.526Z,99057.00
2022-08-07T11:54:03.149Z,99078.00
2022-08-07T11:56:46.710Z,99076.00
2022-08-07T12:00:11.063Z,99073.00
2022-08-07T12:02:35.178Z,99076.00
2022-08-07T12:05:15.231Z,99075.00
2022-08-07T12:08:03.990Z,99064.00
2022-08-07T12:10:36.392Z,99065.00
2022-08-07T12:13:16.815Z,99063.00
2022-08-07T12:16:07.081Z,99053.00
2022-08-07T12:18:45.217Z,99047.00
2022-08-07T12:21:21.043Z,99061.00
2022-08-07T12:24:37.089Z,99060.00
2022-08-07T12:27:00.253Z,99049.00
2022-08-07T12:29:37.786Z,99054.00
2022-08-07T12:32:15.379Z,99040.00
2022-08-07T12:34:49.388Z,99031.00
2022-08-07T12:37:23.381Z,99049.00
2022-08-07T12:39:57.475Z,99053.00
2022-08-07T12:42:28.596Z,99035.00
2022-08-07T12:45:06.404Z,99033.00
2022-08-07T12:47:39.826Z,99030.00
2022-08-07T12:50:39.563Z,99023.00
2022-08-07T12:53:05.354Z,99029.00
2022-08-07T12:56:03.631Z,99025.00
2022-08-07T12:58:39.690Z,99020.00
2022-08-07T13:01:13.981Z,99019.00
2022-08-07T13:04:00.629Z,99022.00
2022-08-07T13:06:54.481Z,99023.00
2022-08-07T13:10:20.542Z,99015.00
2022-08-07T13:12:47.496Z,99011.00
2022-08-07T13:15:29.695Z,99005.00
2022-08-07T13:18:26.049Z,99000.00
2022-08-07T13:20:58.773Z,98993.00
2022-08-07T13:24:01.194Z,99002.00
2022-08-07T13:26:27.750Z,98989.00
2022-08-07T13:29:03.237Z,98975.00
2022-08-07T13:31:54.912Z,98979.00
2022-08-07T13:34:39.513Z,98981.00
2022-08-07T13:37:20.706Z,98981.00
2022-08-07T13:40:35.062Z,98977.00
2022-08-07T13:43:00.898Z,98975.00
2022-08-07T13:46:12.454Z,98975.00
2022-08-07T13:48:27.356Z,98962.00
2022-08-07T13:51:00.242Z,98961.00
2022-08-07T13:53:49.978Z,98953.00
2022-08-07T13:56:35.941Z,98965.00
2022-08-07T13:59:13.086Z,98953.00
2022-08-07T14:01:51.203Z,98963.00
2022-08-07T14:04:36.203Z,98959.00
2022-08-07T14:07:09.410Z,98952.00
2022-08-07T14:10:02.166Z,98944.00
2022-08-07T14:12:36.122Z,98946.00
2022-08-07T14:15:12.194Z,98947.00
2022-08-07T14:18:23.522Z,98945.00
2022-08-07T14:20:42.442Z,98941.00
2022-08-07T14:23:31.141Z,98933.00
2022-08-07T14:26:08.453Z,98933.00
2022-08-07T14:28:57.342Z,98933.00
2022-08-07T14:31:42.307Z,98937.00
2022-08-07T14:34:20.227Z,98929.00
2022-08-07T14:36:56.314Z,98929.00
2022-08-07T14:40:14.651Z,98930.00
2022-08-07T14:42:20.287Z,98932.00
2022-08-07T14:44:54.094Z,98927.00
2022-08-07T14:47:28.488Z,98931.00
2022-08-07T14:49:59.195Z,98920.00
2022-08-07T14:52:29.048Z,98925.00
2022-08-07T14:54:59.066Z,98913.00
2022-08-07T14:57:28.984Z,98914.00
2022-08-07T15:00:20.587Z,98930.00
2022-08-07T15:02:56.767Z,98926.00
2022-08-07T15:05:25.500Z,98921.00
2022-08-07T15:07:54.021Z,98912.00
2022-08-07T15:10:26.323Z,98907.00
2022-08-07T15:12:58.032Z,98908.00
2022-08-07T15:15:38.535Z,98912.00
2022-08-07T15:18:14.531Z,98912.00
2022-08-07T15:20:58.809Z,98917.00
2022-08-07T15:25:12.791Z,98892.00
2022-08-07T15:26:28.766Z,98905.00
2022-08-07T15:30:02.205Z,98904.00
2022-08-07T15:34:37.171Z,98900.00
2022-08-07T15:37:06.667Z,98899.00
2022-08-07T15:42:51.561Z,98906.00
2022-08-07T15:48:22.085Z,98901.00
2022-08-07T15:51:08.590Z,98899.00
2022-08-07T15:53:52.285Z,98889.00
2022-08-07T15:56:25.938Z,98893.00
2022-08-07T15:58:57.942Z,98894.00
2022-08-07T16:01:39.407Z,98878.00
2022-08-07T16:04:14.704Z,98881.00
2022-08-07T16:06:44.791Z,98880.00
2022-08-07T16:09:22.353Z,98876.00
2022-08-07T16:12:12.049Z,98880.00
2022-08-07T16:15:03.311Z,98876.00
2022-08-07T16:18:01.839Z,98867.00
2022-08-07T16:20:41.601Z,98871.00
2022-08-07T16:23:53.614Z,98867.00
2022-08-07T16:26:34.121Z,98860.00
2022-08-07T16:30:08.641Z,98871.00
2022-08-07T16:31:58.519Z,98862.00
2022-08-07T16:34:45.348Z,98861.00
2022-08-07T16:38:03.012Z,98864.00
2022-08-07T16:40:36.080Z,98867.00
2022-08-07T16:43:08.939Z,98858.00
2022-08-07T16:46:40.692Z,98857.00
2022-08-07T16:50:20.404Z,98870.00
2022-08-07T16:52:51.990Z,98864.00
2022-08-07T16:55:13.183Z,98857.00
2022-08-07T16:58:03.242Z,98860.00
2022-08-07T17:00:39.293Z,98858.00
2022-08-07T17:03:18.963Z,98855.00
2022-08-07T17:06:28.566Z,98856.00
2022-08-07T17:09:10.762Z,98860.00
2022-08-07T17:12:03.980Z,98852.00
2022-08-07T17:14:51.515Z,98856.00
2022-08-07T17:17:50.064Z,98866.00
2022-08-07T17:20:30.911Z,98858.00
2022-08-07T17:23:12.868Z,98854.00
2022-08-07T17:25:53.247Z,98853.00
2022-08-07T17:28:55.929Z,98861.00
2022-08-07T17:31:27.495Z,98859.00
2022-08-07T17:34:34.247Z,98862.00
2022-08-07T17:37:14.491Z,98871.00
2022-08-07T17:40:03.407Z,98877.00
2022-08-07T17:42:59.371Z,98871.00
2022-08-07T17:45:35.103Z,98870.00
2022-08-07T17:48:06.733Z,98869.00
2022-08-07T17:50:52.547Z,98863.00
2022-08-07T17:53:54.204Z,98865.00
2022-08-07T17:56:26.202Z,98869.00
2022-08-07T17:59:05.522Z,98873.00
2022-08-07T18:01:48.425Z,98868.00
2022-08-07T18:04:31.275Z,98872.00
2022-08-07T18:07:20.281Z,98878.00
2022-08-07T18:10:06.273Z,98873.00
2022-08-07T18:12:43.456Z,98874.00
2022-08-07T18:15:13.588Z,98881.00
2022-08-07T18:18:36.503Z,98879.00
2022-08-07T18:21:07.460Z,98883.00
2022-08-07T18:23:43.274Z,98884.00
2022-08-07T18:26:16.414Z,98890.00
2022-08-07T18:28:58.345Z,98885.00
2022-08-07T18:31:40.609Z,98895.00
2022-08-07T18:34:39.405Z,98897.00
2022-08-07T18:37:11.083Z,98893.00
2022-08-07T18:40:07.974Z,98897.00
2022-08-07T18:42:43.302Z,98901.00
2022-08-07T18:45:43.678Z,98895.00
2022-08-07T18:48:06.669Z,98905.00
2022-08-07T18:50:49.545Z,98892.00
2022-08-07T18:53:37.084Z,98904.00
2022-08-07T18:56:14.125Z,98911.00
2022-08-07T18:59:03.914Z,98902.00
2022-08-07T19:02:32.159Z,98914.00
2022-08-07T19:04:38.903Z,98917.00
2022-08-07T19:07:34.946Z,98917.00
2022-08-07T19:10:14.864Z,98927.00
2022-08-07T19:12:59.406Z,98929.00
2022-08-07T19:16:04.375Z,98921.00
2022-08-07T19:21:08.932Z,98951.00
2022-08-07T19:23:59.424Z,98952.00
2022-08-07T19:26:55.435Z,98956.00
2022-08-07T19:31:05.679Z,98962.00
2022-08-07T19:32:26.541Z,98950.00
2022-08-07T19:35:02.761Z,98977.00
2022-08-07T19:37:55.334Z,98977.00
2022-08-07T19:40:31.739Z,98994.00
2022-08-07T19:43:02.518Z,98965.00
2022-08-07T19:46:05.456Z,98948.00
2022-08-07T19:48:24.535Z,98967.00
2022-08-07T19:50:53.752Z,99003.00
2022-08-07T19:54:31.487Z,98975.00
2022-08-07T19:58:00.653Z,98967.00
2022-08-07T19:59:18.074Z,98980.00
2022-08-07T20:01:52.989Z,98978.00
2022-08-07T20:04:32.177Z,98986.00
2022-08-07T20:07:10.085Z,98948.00
2022-08-07T20:10:35.140Z,98936.00
2022-08-07T20:12:34.680Z,98990.00
2022-08-07T20:15:04.190Z,99018.00
2022-08-07T20:17:38.555Z,98981.00
2022-08-07T20:20:15.575Z,98987.00
2022-08-07T20:22:47.110Z,98956.00
2022-08-07T20:25:19.769Z,98989.00
2022-08-07T20:27:58.260Z,98958.00
2022-08-07T20:30:31.244Z,98967.00
2022-08-07T20:32:59.724Z,98964.00
2022-08-07T20:35:34.223Z,98991.00
2022-08-07T20:38:06.317Z,98960.00
2022-08-07T20:40:40.553Z,98944.00
2022-08-07T20:43:25.243Z,99006.00
2022-08-07T20:46:29.629Z,99004.00
2022-08-07T20:49:54.582Z,98999.00
2022-08-07T20:51:35.783Z,99007.00
2022-08-07T20:54:12.198Z,99007.00
2022-08-07T20:56:46.235Z,99003.00
2022-08-07T21:00:04.291Z,99020.00
2022-08-07T21:02:31.373Z,99017.00
2022-08-07T21:05:00.182Z,99025.00
2022-08-07T21:07:28.359Z,99018.00
2022-08-07T21:09:59.082Z,99009.00
2022-08-07T21:12:31.407Z,99017.00
2022-08-07T21:15:02.815Z,99016.00
2022-08-07T21:18:06.173Z,99025.00
2022-08-07T21:20:26.544Z,99032.00
2022-08-07T21:23:07.573Z,99028.00
2022-08-07T21:25:56.374Z,99028.00
2022-08-07T21:28:50.399Z,99027.00
2022-08-07T21:31:49.193Z,99033.00
2022-08-07T21:34:20.631Z,99028.00
2022-08-07T21:36:51.823Z,99024.00
2022-08-07T21:39:45.357Z,99017.00
2022-08-07T21:42:40.899Z,99021.00
2022-08-07T21:46:08.603Z,99027.00
2022-08-07T21:48:04.265Z,99029.00
2022-08-07T21:50:36.823Z,99024.00
2022-08-07T21:53:08.558Z,99036.00
2022-08-07T21:55:41.052Z,99030.00
2022-08-07T21:58:32.469Z,99030.00
2022-08-07T22:01:04.205Z,99036.00
2022-08-07T22:03:41.003Z,99036.00
2022-08-07T22:06:29.127Z,99034.00
2022-08-07T22:09:02.442Z,99036.00
2022-08-07T22:12:05.935Z,99040.00
2022-08-07T22:14:36.068Z,99034.00
2022-08-07T22:17:05.943Z,99051.00
2022-08-07T22:19:39.774Z,99029.00
2022-08-07T22:22:21.072Z,99037.00
2022-08-07T22:25:12.063Z,99038.00
2022-08-07T22:28:02.915Z,99041.00
2022-08-07T22:30:51.938Z,99037.00
2022-08-07T22:33:53.179Z,99043.00
2022-08-07T22:36:18.176Z,99037.00
2022-08-07T22:38:51.784Z,99036.00
2022-08-07T22:41:21.948Z,99048.00
2022-08-07T22:44:12.790Z,99048.00
2022-08-07T22:47:04.119Z,99044.00
2022-08-07T22:50:21.030Z,99048.00
2022-08-07T22:53:09.337Z,99049.00
2022-08-07T22:55:48.270Z,99049.00
2022-08-07T22:58:34.291Z,99053.00
2022-08-07T23:01:16.511Z,99055.00
2022-08-07T23:03:58.061Z,99056.00
2022-08-07T23:06:40.898Z,99063.00
2022-08-07T23:10:05.525Z,99064.00
2022-08-07T23:12:34.427Z,99072.00
2022-08-07T23:15:08.799Z,99066.00
2022-08-07T23:17:57.653Z,99073.00
2022-08-07T23:20:51.101Z,99080.00
2022-08-07T23:24:05.934Z,99074.00
2022-08-07T23:26:54.801Z,99078.00
2022-08-07T23:30:37.608Z,99076.00
2022-08-07T23:34:19.694Z,99079.00
2022-08-07T23:35:39.592Z,99075.00
2022-08-07T23:38:19.051Z,99084.00
2022-08-07T23:40:49.395Z,99084.00
2022-08-07T23:43:44.467Z,99077.00
2022-08-07T23:46:24.031Z,99071.00
2022-08-07T23:49:25.084Z,99073.00
2022-08-07T23:53:00.015Z,99081.00
2022-08-07T23:55:51.809Z,99074.00
2022-08-07T23:58:21.451Z,99073.00
